sensor_id;sensor_type;location;lat;lon;timestamp;P1;durP1;ratioP1;P2;durP2;ratioP2
11675;SDS011;5894;42.768;23.404;2023-05-19T00:00:04;6.50;;;4.53;;
11675;SDS011;5894;42.768;23.404;2023-05-19T00:02:38;6.25;;;4.65;;
11675;SDS011;5894;42.768;23.404;2023-05-19T00:05:08;9.27;;;4.32;;
11675;SDS011;5894;42.768;23.404;2023-05-19T00:07:37;8.25;;;4.05;;
11675;SDS011;5894;42.768;23.404;2023-05-19T00:10:05;7.43;;;4.28;;
11675;SDS011;5894;42.768;23.404;2023-05-19T00:12:33;14.52;;;5.10;;
11675;SDS011;5894;42.768;23.404;2023-05-19T00:15:02;6.70;;;4.45;;
11675;SDS011;5894;42.768;23.404;2023-05-19T00:17:30;5.68;;;4.30;;
11675;SDS011;5894;42.768;23.404;2023-05-19T00:20:00;5.88;;;4.47;;
11675;SDS011;5894;42.768;23.404;2023-05-19T00:22:31;10.00;;;4.75;;
11675;SDS011;5894;42.768;23.404;2023-05-19T00:24:58;5.28;;;4.47;;
11675;SDS011;5894;42.768;23.404;2023-05-19T00:27:26;6.05;;;4.72;;
11675;SDS011;5894;42.768;23.404;2023-05-19T00:29:53;8.35;;;4.72;;
11675;SDS011;5894;42.768;23.404;2023-05-19T00:32:20;7.07;;;5.03;;
11675;SDS011;5894;42.768;23.404;2023-05-19T00:34:47;5.72;;;4.82;;
11675;SDS011;5894;42.768;23.404;2023-05-19T00:37:17;6.90;;;5.30;;
11675;SDS011;5894;42.768;23.404;2023-05-19T00:39:44;5.60;;;5.10;;
11675;SDS011;5894;42.768;23.404;2023-05-19T00:42:13;7.50;;;5.90;;
11675;SDS011;5894;42.768;23.404;2023-05-19T00:44:40;8.80;;;5.90;;
11675;SDS011;5894;42.768;23.404;2023-05-19T00:47:07;8.23;;;6.22;;
11675;SDS011;5894;42.768;23.404;2023-05-19T00:49:34;6.97;;;5.10;;
11675;SDS011;5894;42.768;23.404;2023-05-19T00:52:02;6.25;;;5.00;;
11675;SDS011;5894;42.768;23.404;2023-05-19T00:54:34;6.65;;;5.30;;
11675;SDS011;5894;42.768;23.404;2023-05-19T00:57:02;7.38;;;4.88;;
11675;SDS011;5894;42.768;23.404;2023-05-19T00:59:29;6.25;;;4.80;;
11675;SDS011;5894;42.768;23.404;2023-05-19T01:01:57;7.70;;;5.20;;
11675;SDS011;5894;42.768;23.404;2023-05-19T01:04:24;5.82;;;4.70;;
11675;SDS011;5894;42.768;23.404;2023-05-19T01:06:51;4.90;;;4.32;;
11675;SDS011;5894;42.768;23.404;2023-05-19T01:09:19;5.78;;;4.50;;
11675;SDS011;5894;42.768;23.404;2023-05-19T01:11:48;4.28;;;3.88;;
11675;SDS011;5894;42.768;23.404;2023-05-19T01:14:16;6.40;;;4.18;;
11675;SDS011;5894;42.768;23.404;2023-05-19T01:16:45;8.07;;;3.78;;
11675;SDS011;5894;42.768;23.404;2023-05-19T01:19:22;5.80;;;4.13;;
11675;SDS011;5894;42.768;23.404;2023-05-19T01:22:05;5.22;;;3.60;;
11675;SDS011;5894;42.768;23.404;2023-05-19T01:25:02;4.53;;;3.45;;
11675;SDS011;5894;42.768;23.404;2023-05-19T01:27:58;5.57;;;3.50;;
11675;SDS011;5894;42.768;23.404;2023-05-19T01:30:43;5.07;;;3.90;;
11675;SDS011;5894;42.768;23.404;2023-05-19T01:33:13;8.30;;;3.83;;
11675;SDS011;5894;42.768;23.404;2023-05-19T01:35:42;4.13;;;3.72;;
11675;SDS011;5894;42.768;23.404;2023-05-19T01:38:11;4.90;;;3.65;;
11675;SDS011;5894;42.768;23.404;2023-05-19T01:40:41;6.03;;;3.45;;
11675;SDS011;5894;42.768;23.404;2023-05-19T01:43:11;5.10;;;3.85;;
11675;SDS011;5894;42.768;23.404;2023-05-19T01:45:44;4.50;;;3.90;;
11675;SDS011;5894;42.768;23.404;2023-05-19T01:48:12;5.05;;;3.60;;
11675;SDS011;5894;42.768;23.404;2023-05-19T01:50:40;7.10;;;3.58;;
11675;SDS011;5894;42.768;23.404;2023-05-19T01:53:08;5.35;;;3.63;;
11675;SDS011;5894;42.768;23.404;2023-05-19T01:55:37;6.90;;;3.50;;
11675;SDS011;5894;42.768;23.404;2023-05-19T01:58:14;5.10;;;3.67;;
11675;SDS011;5894;42.768;23.404;2023-05-19T02:00:52;6.10;;;3.72;;
11675;SDS011;5894;42.768;23.404;2023-05-19T02:03:34;3.88;;;3.30;;
11675;SDS011;5894;42.768;23.404;2023-05-19T02:06:13;5.70;;;3.40;;
11675;SDS011;5894;42.768;23.404;2023-05-19T02:08:50;7.35;;;3.63;;
11675;SDS011;5894;42.768;23.404;2023-05-19T02:11:25;3.60;;;3.13;;
11675;SDS011;5894;42.768;23.404;2023-05-19T02:14:00;4.78;;;3.50;;
11675;SDS011;5894;42.768;23.404;2023-05-19T02:16:33;6.78;;;3.70;;
11675;SDS011;5894;42.768;23.404;2023-05-19T02:19:02;5.32;;;3.30;;
11675;SDS011;5894;42.768;23.404;2023-05-19T02:21:32;4.93;;;3.30;;
11675;SDS011;5894;42.768;23.404;2023-05-19T02:23:59;4.72;;;3.33;;
11675;SDS011;5894;42.768;23.404;2023-05-19T02:26:26;3.97;;;3.28;;
11675;SDS011;5894;42.768;23.404;2023-05-19T02:28:53;5.15;;;2.90;;
11675;SDS011;5894;42.768;23.404;2023-05-19T02:31:21;7.55;;;2.97;;
11675;SDS011;5894;42.768;23.404;2023-05-19T02:33:49;3.45;;;3.00;;
11675;SDS011;5894;42.768;23.404;2023-05-19T02:36:16;3.72;;;3.13;;
11675;SDS011;5894;42.768;23.404;2023-05-19T02:38:44;7.45;;;3.47;;
11675;SDS011;5894;42.768;23.404;2023-05-19T02:41:11;4.45;;;3.25;;
11675;SDS011;5894;42.768;23.404;2023-05-19T02:43:41;4.05;;;3.13;;
11675;SDS011;5894;42.768;23.404;2023-05-19T02:46:08;3.40;;;3.10;;
11675;SDS011;5894;42.768;23.404;2023-05-19T02:48:36;4.68;;;3.55;;
11675;SDS011;5894;42.768;23.404;2023-05-19T02:51:04;5.00;;;3.45;;
11675;SDS011;5894;42.768;23.404;2023-05-19T02:53:32;5.95;;;3.67;;
11675;SDS011;5894;42.768;23.404;2023-05-19T02:55:59;6.05;;;3.67;;
11675;SDS011;5894;42.768;23.404;2023-05-19T02:58:27;6.07;;;3.80;;
11675;SDS011;5894;42.768;23.404;2023-05-19T03:00:54;8.48;;;3.80;;
11675;SDS011;5894;42.768;23.404;2023-05-19T03:03:21;4.05;;;3.55;;
11675;SDS011;5894;42.768;23.404;2023-05-19T03:05:48;7.45;;;3.80;;
11675;SDS011;5894;42.768;23.404;2023-05-19T03:08:17;5.03;;;3.65;;
11675;SDS011;5894;42.768;23.404;2023-05-19T03:10:44;4.75;;;3.80;;
11675;SDS011;5894;42.768;23.404;2023-05-19T03:13:12;5.10;;;3.70;;
11675;SDS011;5894;42.768;23.404;2023-05-19T03:15:41;4.85;;;3.85;;
11675;SDS011;5894;42.768;23.404;2023-05-19T03:18:09;7.28;;;5.30;;
11675;SDS011;5894;42.768;23.404;2023-05-19T03:20:37;8.25;;;5.88;;
11675;SDS011;5894;42.768;23.404;2023-05-19T03:23:06;5.07;;;4.10;;
11675;SDS011;5894;42.768;23.404;2023-05-19T03:25:36;7.05;;;4.00;;
11675;SDS011;5894;42.768;23.404;2023-05-19T03:28:03;7.68;;;4.30;;
11675;SDS011;5894;42.768;23.404;2023-05-19T03:30:30;11.80;;;4.55;;
11675;SDS011;5894;42.768;23.404;2023-05-19T03:33:06;9.18;;;5.07;;
11675;SDS011;5894;42.768;23.404;2023-05-19T03:35:34;7.22;;;5.50;;
11675;SDS011;5894;42.768;23.404;2023-05-19T03:38:01;6.45;;;5.50;;
11675;SDS011;5894;42.768;23.404;2023-05-19T03:40:29;8.40;;;6.25;;
11675;SDS011;5894;42.768;23.404;2023-05-19T03:43:04;9.80;;;6.45;;
11675;SDS011;5894;42.768;23.404;2023-05-19T03:45:37;8.57;;;7.00;;
11675;SDS011;5894;42.768;23.404;2023-05-19T03:48:25;8.27;;;6.90;;
11675;SDS011;5894;42.768;23.404;2023-05-19T03:51:16;12.38;;;8.38;;
11675;SDS011;5894;42.768;23.404;2023-05-19T03:53:45;73.22;;;11.98;;
11675;SDS011;5894;42.768;23.404;2023-05-19T03:56:14;8.73;;;7.45;;
11675;SDS011;5894;42.768;23.404;2023-05-19T03:58:43;9.48;;;7.43;;
11675;SDS011;5894;42.768;23.404;2023-05-19T04:01:13;14.02;;;7.68;;
11675;SDS011;5894;42.768;23.404;2023-05-19T04:03:40;9.70;;;7.32;;
11675;SDS011;5894;42.768;23.404;2023-05-19T04:06:07;10.88;;;7.65;;
11675;SDS011;5894;42.768;23.404;2023-05-19T04:08:38;14.30;;;7.57;;
11675;SDS011;5894;42.768;23.404;2023-05-19T04:11:05;13.00;;;7.32;;
11675;SDS011;5894;42.768;23.404;2023-05-19T04:13:32;11.00;;;8.23;;
11675;SDS011;5894;42.768;23.404;2023-05-19T04:16:01;8.25;;;7.03;;
11675;SDS011;5894;42.768;23.404;2023-05-19T04:18:30;10.20;;;7.00;;
11675;SDS011;5894;42.768;23.404;2023-05-19T04:20:58;9.25;;;7.07;;
11675;SDS011;5894;42.768;23.404;2023-05-19T04:23:26;8.98;;;6.50;;
11675;SDS011;5894;42.768;23.404;2023-05-19T04:25:55;7.32;;;6.47;;
11675;SDS011;5894;42.768;23.404;2023-05-19T04:28:23;7.00;;;6.18;;
11675;SDS011;5894;42.768;23.404;2023-05-19T04:30:50;7.13;;;6.43;;
11675;SDS011;5894;42.768;23.404;2023-05-19T04:33:19;7.72;;;6.00;;
11675;SDS011;5894;42.768;23.404;2023-05-19T04:35:46;7.07;;;6.00;;
11675;SDS011;5894;42.768;23.404;2023-05-19T04:38:15;6.90;;;6.20;;
11675;SDS011;5894;42.768;23.404;2023-05-19T04:40:48;7.88;;;6.55;;
11675;SDS011;5894;42.768;23.404;2023-05-19T04:43:17;7.82;;;6.88;;
11675;SDS011;5894;42.768;23.404;2023-05-19T04:45:46;9.82;;;6.95;;
11675;SDS011;5894;42.768;23.404;2023-05-19T04:48:16;7.43;;;6.63;;
11675;SDS011;5894;42.768;23.404;2023-05-19T04:50:46;8.77;;;6.65;;
11675;SDS011;5894;42.768;23.404;2023-05-19T04:53:13;9.35;;;7.30;;
11675;SDS011;5894;42.768;23.404;2023-05-19T04:55:43;7.70;;;6.85;;
11675;SDS011;5894;42.768;23.404;2023-05-19T04:58:14;8.75;;;6.90;;
11675;SDS011;5894;42.768;23.404;2023-05-19T05:00:45;8.65;;;7.72;;
11675;SDS011;5894;42.768;23.404;2023-05-19T05:03:15;11.13;;;7.47;;
11675;SDS011;5894;42.768;23.404;2023-05-19T05:05:44;10.82;;;7.80;;
11675;SDS011;5894;42.768;23.404;2023-05-19T05:08:11;11.57;;;8.35;;
11675;SDS011;5894;42.768;23.404;2023-05-19T05:10:41;9.52;;;8.52;;
11675;SDS011;5894;42.768;23.404;2023-05-19T05:13:11;12.00;;;9.73;;
11675;SDS011;5894;42.768;23.404;2023-05-19T05:15:42;12.35;;;9.73;;
11675;SDS011;5894;42.768;23.404;2023-05-19T05:18:11;15.45;;;11.75;;
11675;SDS011;5894;42.768;23.404;2023-05-19T05:20:39;14.50;;;11.73;;
11675;SDS011;5894;42.768;23.404;2023-05-19T05:23:11;14.32;;;11.52;;
11675;SDS011;5894;42.768;23.404;2023-05-19T05:25:43;14.38;;;11.35;;
11675;SDS011;5894;42.768;23.404;2023-05-19T05:28:13;13.93;;;11.52;;
11675;SDS011;5894;42.768;23.404;2023-05-19T05:30:41;14.13;;;11.60;;
11675;SDS011;5894;42.768;23.404;2023-05-19T05:33:15;14.23;;;11.65;;
11675;SDS011;5894;42.768;23.404;2023-05-19T05:35:44;11.68;;;10.35;;
11675;SDS011;5894;42.768;23.404;2023-05-19T05:38:18;13.45;;;10.30;;
11675;SDS011;5894;42.768;23.404;2023-05-19T05:40:46;13.30;;;10.90;;
11675;SDS011;5894;42.768;23.404;2023-05-19T05:43:17;16.25;;;10.52;;
11675;SDS011;5894;42.768;23.404;2023-05-19T05:45:50;12.20;;;9.70;;
11675;SDS011;5894;42.768;23.404;2023-05-19T05:48:19;11.13;;;9.65;;
11675;SDS011;5894;42.768;23.404;2023-05-19T05:50:47;12.90;;;9.68;;
11675;SDS011;5894;42.768;23.404;2023-05-19T05:53:26;10.73;;;9.60;;
11675;SDS011;5894;42.768;23.404;2023-05-19T05:56:00;12.63;;;10.23;;
11675;SDS011;5894;42.768;23.404;2023-05-19T05:58:40;10.77;;;9.68;;
11675;SDS011;5894;42.768;23.404;2023-05-19T06:01:10;13.60;;;9.90;;
11675;SDS011;5894;42.768;23.404;2023-05-19T06:03:39;11.63;;;9.57;;
11675;SDS011;5894;42.768;23.404;2023-05-19T06:06:10;10.75;;;9.35;;
11675;SDS011;5894;42.768;23.404;2023-05-19T06:08:40;12.48;;;9.27;;
11675;SDS011;5894;42.768;23.404;2023-05-19T06:11:07;13.52;;;10.00;;
11675;SDS011;5894;42.768;23.404;2023-05-19T06:13:37;10.43;;;9.35;;
11675;SDS011;5894;42.768;23.404;2023-05-19T06:16:12;12.68;;;10.30;;
11675;SDS011;5894;42.768;23.404;2023-05-19T06:18:43;18.38;;;10.65;;
11675;SDS011;5894;42.768;23.404;2023-05-19T06:21:11;15.73;;;12.82;;
11675;SDS011;5894;42.768;23.404;2023-05-19T06:23:42;13.63;;;10.73;;
11675;SDS011;5894;42.768;23.404;2023-05-19T06:26:10;10.98;;;9.68;;
11675;SDS011;5894;42.768;23.404;2023-05-19T06:28:37;10.90;;;9.50;;
11675;SDS011;5894;42.768;23.404;2023-05-19T06:31:04;11.52;;;9.13;;
11675;SDS011;5894;42.768;23.404;2023-05-19T06:33:41;11.70;;;9.10;;
11675;SDS011;5894;42.768;23.404;2023-05-19T06:36:08;10.30;;;8.98;;
11675;SDS011;5894;42.768;23.404;2023-05-19T06:38:38;14.10;;;8.98;;
11675;SDS011;5894;42.768;23.404;2023-05-19T06:41:07;10.48;;;9.05;;
11675;SDS011;5894;42.768;23.404;2023-05-19T06:43:35;10.25;;;8.77;;
11675;SDS011;5894;42.768;23.404;2023-05-19T06:46:02;10.55;;;8.75;;
11675;SDS011;5894;42.768;23.404;2023-05-19T06:48:32;11.20;;;8.43;;
11675;SDS011;5894;42.768;23.404;2023-05-19T06:50:59;10.52;;;7.95;;
11675;SDS011;5894;42.768;23.404;2023-05-19T06:53:26;10.60;;;7.65;;
11675;SDS011;5894;42.768;23.404;2023-05-19T06:55:53;8.80;;;7.88;;
11675;SDS011;5894;42.768;23.404;2023-05-19T06:58:23;10.30;;;7.25;;
11675;SDS011;5894;42.768;23.404;2023-05-19T07:00:52;8.82;;;7.60;;
11675;SDS011;5894;42.768;23.404;2023-05-19T07:03:19;9.48;;;7.97;;
11675;SDS011;5894;42.768;23.404;2023-05-19T07:05:47;11.15;;;7.78;;
11675;SDS011;5894;42.768;23.404;2023-05-19T07:08:14;10.45;;;7.90;;
11675;SDS011;5894;42.768;23.404;2023-05-19T07:10:42;10.48;;;7.28;;
11675;SDS011;5894;42.768;23.404;2023-05-19T07:13:11;9.10;;;7.60;;
11675;SDS011;5894;42.768;23.404;2023-05-19T07:15:41;9.32;;;7.35;;
11675;SDS011;5894;42.768;23.404;2023-05-19T07:18:07;8.52;;;6.95;;
11675;SDS011;5894;42.768;23.404;2023-05-19T07:20:35;8.95;;;6.72;;
11675;SDS011;5894;42.768;23.404;2023-05-19T07:23:02;9.43;;;7.15;;
11675;SDS011;5894;42.768;23.404;2023-05-19T07:25:29;10.38;;;6.60;;
11675;SDS011;5894;42.768;23.404;2023-05-19T07:27:58;11.73;;;7.00;;
11675;SDS011;5894;42.768;23.404;2023-05-19T07:30:26;11.10;;;6.70;;
11675;SDS011;5894;42.768;23.404;2023-05-19T07:32:55;7.13;;;6.22;;
11675;SDS011;5894;42.768;23.404;2023-05-19T07:35:22;8.00;;;6.50;;
11675;SDS011;5894;42.768;23.404;2023-05-19T07:37:49;7.40;;;6.63;;
11675;SDS011;5894;42.768;23.404;2023-05-19T07:40:17;17.48;;;6.97;;
11675;SDS011;5894;42.768;23.404;2023-05-19T07:42:44;8.32;;;6.28;;
11675;SDS011;5894;42.768;23.404;2023-05-19T07:45:11;8.57;;;7.10;;
11675;SDS011;5894;42.768;23.404;2023-05-19T07:47:38;7.55;;;6.15;;
11675;SDS011;5894;42.768;23.404;2023-05-19T07:50:07;18.13;;;7.10;;
11675;SDS011;5894;42.768;23.404;2023-05-19T07:52:34;13.75;;;6.20;;
11675;SDS011;5894;42.768;23.404;2023-05-19T07:55:02;11.07;;;6.28;;
11675;SDS011;5894;42.768;23.404;2023-05-19T07:57:29;10.15;;;5.90;;
11675;SDS011;5894;42.768;23.404;2023-05-19T07:59:56;6.60;;;5.95;;
11675;SDS011;5894;42.768;23.404;2023-05-19T08:02:23;7.82;;;6.63;;
11675;SDS011;5894;42.768;23.404;2023-05-19T08:04:50;7.20;;;6.20;;
11675;SDS011;5894;42.768;23.404;2023-05-19T08:07:18;10.10;;;6.07;;
11675;SDS011;5894;42.768;23.404;2023-05-19T08:09:45;16.13;;;6.72;;
11675;SDS011;5894;42.768;23.404;2023-05-19T08:12:12;11.82;;;5.88;;
11675;SDS011;5894;42.768;23.404;2023-05-19T08:14:40;8.43;;;5.70;;
11675;SDS011;5894;42.768;23.404;2023-05-19T08:17:07;8.52;;;6.00;;
11675;SDS011;5894;42.768;23.404;2023-05-19T08:19:34;10.10;;;6.13;;
11675;SDS011;5894;42.768;23.404;2023-05-19T08:22:02;11.57;;;6.55;;
11675;SDS011;5894;42.768;23.404;2023-05-19T08:24:31;11.63;;;6.35;;
11675;SDS011;5894;42.768;23.404;2023-05-19T08:26:58;9.88;;;5.93;;
11675;SDS011;5894;42.768;23.404;2023-05-19T08:29:25;7.28;;;6.13;;
11675;SDS011;5894;42.768;23.404;2023-05-19T08:31:52;9.43;;;6.53;;
11675;SDS011;5894;42.768;23.404;2023-05-19T08:34:19;12.35;;;7.90;;
11675;SDS011;5894;42.768;23.404;2023-05-19T08:36:46;9.30;;;6.03;;
11675;SDS011;5894;42.768;23.404;2023-05-19T08:39:13;7.03;;;6.03;;
11675;SDS011;5894;42.768;23.404;2023-05-19T08:41:44;8.48;;;6.43;;
11675;SDS011;5894;42.768;23.404;2023-05-19T08:44:10;10.13;;;6.43;;
11675;SDS011;5894;42.768;23.404;2023-05-19T08:46:38;13.55;;;7.40;;
11675;SDS011;5894;42.768;23.404;2023-05-19T08:49:07;16.05;;;8.95;;
11675;SDS011;5894;42.768;23.404;2023-05-19T08:51:40;13.18;;;7.95;;
11675;SDS011;5894;42.768;23.404;2023-05-19T08:54:13;7.95;;;6.68;;
11675;SDS011;5894;42.768;23.404;2023-05-19T08:56:43;8.80;;;7.00;;
11675;SDS011;5894;42.768;23.404;2023-05-19T08:59:11;12.38;;;7.55;;
11675;SDS011;5894;42.768;23.404;2023-05-19T09:01:40;13.88;;;7.90;;
11675;SDS011;5894;42.768;23.404;2023-05-19T09:04:09;10.38;;;6.38;;
11675;SDS011;5894;42.768;23.404;2023-05-19T09:06:37;13.10;;;6.78;;
11675;SDS011;5894;42.768;23.404;2023-05-19T09:09:08;13.63;;;7.13;;
11675;SDS011;5894;42.768;23.404;2023-05-19T09:11:36;8.88;;;6.75;;
11675;SDS011;5894;42.768;23.404;2023-05-19T09:14:04;10.32;;;8.35;;
11675;SDS011;5894;42.768;23.404;2023-05-19T09:16:31;9.10;;;8.20;;
11675;SDS011;5894;42.768;23.404;2023-05-19T09:18:58;11.57;;;7.78;;
11675;SDS011;5894;42.768;23.404;2023-05-19T09:21:26;8.60;;;7.40;;
11675;SDS011;5894;42.768;23.404;2023-05-19T09:23:55;12.07;;;7.75;;
11675;SDS011;5894;42.768;23.404;2023-05-19T09:26:23;9.70;;;7.38;;
11675;SDS011;5894;42.768;23.404;2023-05-19T09:28:50;10.60;;;8.02;;
11675;SDS011;5894;42.768;23.404;2023-05-19T09:31:19;12.20;;;7.75;;
11675;SDS011;5894;42.768;23.404;2023-05-19T09:33:46;12.52;;;8.00;;
11675;SDS011;5894;42.768;23.404;2023-05-19T09:36:18;14.43;;;7.57;;
11675;SDS011;5894;42.768;23.404;2023-05-19T09:38:46;15.75;;;7.93;;
11675;SDS011;5894;42.768;23.404;2023-05-19T09:41:13;8.73;;;6.90;;
11675;SDS011;5894;42.768;23.404;2023-05-19T09:43:40;11.45;;;7.85;;
11675;SDS011;5894;42.768;23.404;2023-05-19T09:46:08;8.98;;;7.13;;
11675;SDS011;5894;42.768;23.404;2023-05-19T09:48:37;10.40;;;7.80;;
11675;SDS011;5894;42.768;23.404;2023-05-19T09:51:06;8.43;;;7.40;;
11675;SDS011;5894;42.768;23.404;2023-05-19T09:53:34;12.20;;;7.60;;
11675;SDS011;5894;42.768;23.404;2023-05-19T09:56:03;9.73;;;7.85;;
11675;SDS011;5894;42.768;23.404;2023-05-19T09:58:30;8.65;;;7.75;;
11675;SDS011;5894;42.768;23.404;2023-05-19T10:00:59;14.90;;;7.82;;
11675;SDS011;5894;42.768;23.404;2023-05-19T10:03:27;12.35;;;7.90;;
11675;SDS011;5894;42.768;23.404;2023-05-19T10:05:58;10.75;;;8.07;;
11675;SDS011;5894;42.768;23.404;2023-05-19T10:08:26;9.75;;;7.13;;
11675;SDS011;5894;42.768;23.404;2023-05-19T10:10:54;9.75;;;7.47;;
11675;SDS011;5894;42.768;23.404;2023-05-19T10:13:22;12.30;;;7.75;;
11675;SDS011;5894;42.768;23.404;2023-05-19T10:15:50;12.77;;;8.35;;
11675;SDS011;5894;42.768;23.404;2023-05-19T10:18:20;9.50;;;7.25;;
11675;SDS011;5894;42.768;23.404;2023-05-19T10:20:48;9.85;;;6.93;;
11675;SDS011;5894;42.768;23.404;2023-05-19T10:23:18;11.38;;;7.70;;
11675;SDS011;5894;42.768;23.404;2023-05-19T10:25:46;11.88;;;7.82;;
11675;SDS011;5894;42.768;23.404;2023-05-19T10:28:15;14.32;;;8.20;;
11675;SDS011;5894;42.768;23.404;2023-05-19T10:30:45;10.93;;;7.95;;
11675;SDS011;5894;42.768;23.404;2023-05-19T10:33:15;11.18;;;7.45;;
11675;SDS011;5894;42.768;23.404;2023-05-19T10:38:44;13.85;;;7.93;;
11675;SDS011;5894;42.768;23.404;2023-05-19T10:41:21;10.88;;;6.90;;
11675;SDS011;5894;42.768;23.404;2023-05-19T10:44:02;9.10;;;7.05;;
11675;SDS011;5894;42.768;23.404;2023-05-19T10:46:36;10.07;;;7.20;;
11675;SDS011;5894;42.768;23.404;2023-05-19T10:49:07;9.93;;;6.78;;
11675;SDS011;5894;42.768;23.404;2023-05-19T10:51:34;9.63;;;7.63;;
11675;SDS011;5894;42.768;23.404;2023-05-19T10:54:03;8.90;;;7.32;;
11675;SDS011;5894;42.768;23.404;2023-05-19T10:56:35;9.63;;;6.95;;
11675;SDS011;5894;42.768;23.404;2023-05-19T10:59:06;9.57;;;7.35;;
11675;SDS011;5894;42.768;23.404;2023-05-19T11:01:53;12.25;;;7.60;;
11675;SDS011;5894;42.768;23.404;2023-05-19T11:04:20;9.30;;;7.45;;
11675;SDS011;5894;42.768;23.404;2023-05-19T11:07:07;10.43;;;7.65;;
11675;SDS011;5894;42.768;23.404;2023-05-19T11:09:38;11.38;;;6.70;;
11675;SDS011;5894;42.768;23.404;2023-05-19T11:12:06;13.90;;;6.60;;
11675;SDS011;5894;42.768;23.404;2023-05-19T11:14:37;9.00;;;6.60;;
11675;SDS011;5894;42.768;23.404;2023-05-19T11:17:05;8.02;;;6.38;;
11675;SDS011;5894;42.768;23.404;2023-05-19T11:19:39;10.15;;;6.30;;
11675;SDS011;5894;42.768;23.404;2023-05-19T11:22:21;10.07;;;6.55;;
11675;SDS011;5894;42.768;23.404;2023-05-19T11:24:50;13.10;;;6.35;;
11675;SDS011;5894;42.768;23.404;2023-05-19T11:27:25;9.90;;;6.20;;
11675;SDS011;5894;42.768;23.404;2023-05-19T11:29:53;7.97;;;5.93;;
11675;SDS011;5894;42.768;23.404;2023-05-19T11:32:23;12.70;;;7.25;;
11675;SDS011;5894;42.768;23.404;2023-05-19T11:34:52;10.73;;;6.68;;
11675;SDS011;5894;42.768;23.404;2023-05-19T11:37:21;11.90;;;6.53;;
11675;SDS011;5894;42.768;23.404;2023-05-19T11:39:50;7.72;;;6.40;;
11675;SDS011;5894;42.768;23.404;2023-05-19T11:42:18;13.07;;;7.15;;
11675;SDS011;5894;42.768;23.404;2023-05-19T11:44:45;11.55;;;6.18;;
11675;SDS011;5894;42.768;23.404;2023-05-19T11:47:12;15.60;;;6.22;;
11675;SDS011;5894;42.768;23.404;2023-05-19T11:49:41;9.32;;;6.40;;
11675;SDS011;5894;42.768;23.404;2023-05-19T11:52:10;8.57;;;5.88;;
11675;SDS011;5894;42.768;23.404;2023-05-19T11:54:37;9.75;;;6.00;;
11675;SDS011;5894;42.768;23.404;2023-05-19T11:57:08;8.50;;;5.97;;
11675;SDS011;5894;42.768;23.404;2023-05-19T11:59:36;10.27;;;6.35;;
11675;SDS011;5894;42.768;23.404;2023-05-19T12:02:17;7.10;;;5.47;;
11675;SDS011;5894;42.768;23.404;2023-05-19T12:04:47;6.85;;;5.85;;
11675;SDS011;5894;42.768;23.404;2023-05-19T12:07:15;7.30;;;5.65;;
11675;SDS011;5894;42.768;23.404;2023-05-19T12:09:43;9.10;;;5.50;;
11675;SDS011;5894;42.768;23.404;2023-05-19T12:12:16;7.93;;;5.25;;
11675;SDS011;5894;42.768;23.404;2023-05-19T12:14:45;6.13;;;5.10;;
11675;SDS011;5894;42.768;23.404;2023-05-19T12:17:13;5.80;;;5.18;;
11675;SDS011;5894;42.768;23.404;2023-05-19T12:19:42;8.20;;;5.43;;
11675;SDS011;5894;42.768;23.404;2023-05-19T12:22:10;5.32;;;4.82;;
11675;SDS011;5894;42.768;23.404;2023-05-19T12:24:38;8.38;;;5.47;;
11675;SDS011;5894;42.768;23.404;2023-05-19T12:27:09;6.10;;;5.30;;
11675;SDS011;5894;42.768;23.404;2023-05-19T12:29:39;6.53;;;5.15;;
11675;SDS011;5894;42.768;23.404;2023-05-19T12:32:07;7.95;;;5.70;;
11675;SDS011;5894;42.768;23.404;2023-05-19T12:34:35;9.35;;;5.50;;
11675;SDS011;5894;42.768;23.404;2023-05-19T12:37:03;6.70;;;5.75;;
11675;SDS011;5894;42.768;23.404;2023-05-19T12:39:31;7.30;;;5.55;;
11675;SDS011;5894;42.768;23.404;2023-05-19T12:42:02;6.32;;;5.20;;
11675;SDS011;5894;42.768;23.404;2023-05-19T12:44:35;6.88;;;5.30;;
11675;SDS011;5894;42.768;23.404;2023-05-19T12:47:05;7.25;;;5.35;;
11675;SDS011;5894;42.768;23.404;2023-05-19T12:49:35;7.88;;;5.28;;
11675;SDS011;5894;42.768;23.404;2023-05-19T12:52:02;6.50;;;5.18;;
11675;SDS011;5894;42.768;23.404;2023-05-19T12:54:33;5.68;;;4.95;;
11675;SDS011;5894;42.768;23.404;2023-05-19T12:57:00;6.18;;;5.18;;
11675;SDS011;5894;42.768;23.404;2023-05-19T12:59:27;9.13;;;4.78;;
11675;SDS011;5894;42.768;23.404;2023-05-19T13:01:59;6.15;;;4.70;;
11675;SDS011;5894;42.768;23.404;2023-05-19T13:04:33;7.00;;;5.00;;
11675;SDS011;5894;42.768;23.404;2023-05-19T13:07:03;6.03;;;4.97;;
11675;SDS011;5894;42.768;23.404;2023-05-19T13:09:32;7.90;;;5.10;;
11675;SDS011;5894;42.768;23.404;2023-05-19T13:12:00;6.15;;;5.18;;
11675;SDS011;5894;42.768;23.404;2023-05-19T13:14:29;8.00;;;5.32;;
11675;SDS011;5894;42.768;23.404;2023-05-19T13:16:56;6.40;;;5.05;;
11675;SDS011;5894;42.768;23.404;2023-05-19T13:19:23;6.65;;;5.20;;
11675;SDS011;5894;42.768;23.404;2023-05-19T13:21:51;8.75;;;5.78;;
11675;SDS011;5894;42.768;23.404;2023-05-19T13:24:19;8.02;;;6.20;;
11675;SDS011;5894;42.768;23.404;2023-05-19T13:26:46;6.38;;;5.63;;
11675;SDS011;5894;42.768;23.404;2023-05-19T13:29:13;7.80;;;6.30;;
11675;SDS011;5894;42.768;23.404;2023-05-19T13:31:40;7.85;;;5.90;;
11675;SDS011;5894;42.768;23.404;2023-05-19T13:34:08;8.35;;;6.05;;
11675;SDS011;5894;42.768;23.404;2023-05-19T13:36:37;8.45;;;6.22;;
11675;SDS011;5894;42.768;23.404;2023-05-19T13:39:13;7.38;;;5.20;;
11675;SDS011;5894;42.768;23.404;2023-05-19T13:41:41;10.63;;;5.53;;
11675;SDS011;5894;42.768;23.404;2023-05-19T13:44:08;6.07;;;5.28;;
11675;SDS011;5894;42.768;23.404;2023-05-19T13:46:35;6.78;;;5.20;;
11675;SDS011;5894;42.768;23.404;2023-05-19T13:49:05;7.18;;;5.45;;
11675;SDS011;5894;42.768;23.404;2023-05-19T13:51:32;6.35;;;5.40;;
11675;SDS011;5894;42.768;23.404;2023-05-19T13:54:01;6.50;;;5.47;;
11675;SDS011;5894;42.768;23.404;2023-05-19T13:56:30;10.18;;;5.75;;
11675;SDS011;5894;42.768;23.404;2023-05-19T13:58:58;6.57;;;5.43;;
11675;SDS011;5894;42.768;23.404;2023-05-19T14:01:25;7.93;;;5.57;;
11675;SDS011;5894;42.768;23.404;2023-05-19T14:03:52;9.20;;;6.20;;
11675;SDS011;5894;42.768;23.404;2023-05-19T14:06:19;9.20;;;5.63;;
11675;SDS011;5894;42.768;23.404;2023-05-19T14:08:47;9.18;;;6.00;;
11675;SDS011;5894;42.768;23.404;2023-05-19T14:11:16;7.97;;;6.25;;
11675;SDS011;5894;42.768;23.404;2023-05-19T14:13:46;9.52;;;6.53;;
11675;SDS011;5894;42.768;23.404;2023-05-19T14:16:15;7.70;;;6.32;;
11675;SDS011;5894;42.768;23.404;2023-05-19T14:18:43;6.90;;;6.20;;
11675;SDS011;5894;42.768;23.404;2023-05-19T14:21:13;9.40;;;6.00;;
11675;SDS011;5894;42.768;23.404;2023-05-19T14:23:41;6.95;;;6.05;;
11675;SDS011;5894;42.768;23.404;2023-05-19T14:26:11;10.95;;;6.10;;
11675;SDS011;5894;42.768;23.404;2023-05-19T14:28:38;7.30;;;6.32;;
11675;SDS011;5894;42.768;23.404;2023-05-19T14:31:11;13.38;;;5.90;;
11675;SDS011;5894;42.768;23.404;2023-05-19T14:33:39;6.60;;;5.53;;
11675;SDS011;5894;42.768;23.404;2023-05-19T14:36:07;8.98;;;5.75;;
11675;SDS011;5894;42.768;23.404;2023-05-19T14:38:35;8.93;;;5.72;;
11675;SDS011;5894;42.768;23.404;2023-05-19T14:41:03;6.18;;;5.35;;
11675;SDS011;5894;42.768;23.404;2023-05-19T14:43:30;8.00;;;5.30;;
11675;SDS011;5894;42.768;23.404;2023-05-19T14:45:57;6.47;;;5.57;;
11675;SDS011;5894;42.768;23.404;2023-05-19T14:48:26;11.60;;;6.07;;
11675;SDS011;5894;42.768;23.404;2023-05-19T14:50:53;7.40;;;6.00;;
11675;SDS011;5894;42.768;23.404;2023-05-19T14:53:21;8.23;;;5.95;;
11675;SDS011;5894;42.768;23.404;2023-05-19T14:55:54;8.32;;;5.60;;
11675;SDS011;5894;42.768;23.404;2023-05-19T14:58:24;6.60;;;5.55;;